ETD1226 OMAA-OBBI
Flight info
| Callsign | ETD1226 |
|---|---|
| Flight time | 0h 44m |
| Altitude | 26000 |
| Route | BOSEV N563 IMGUX P699 ORMID M556 ORDIG |
| Aircraft | A321/M-SDE3FGHIRWY/LB1 |
Departure
| Time | 2026-05-08 14:45 |
|---|---|
| Airport | Zayed International Airport (OMAA) |
Arrival
| Time | 2026-05-08 15:30 |
|---|---|
| Airport | Bahrain International Airport (OBBI) |
| Time | Latitude | Longitude | Altitude | Speed | Heading |
|---|---|---|---|---|---|
| 2026-05-08 14:24 | 24.44806 | 54.64236 | 76 ft | 0 kts | 73° |
| 2026-05-08 14:32 | 24.44803 | 54.64225 | 66 ft | 4 kts | 74° |
| 2026-05-08 14:32 | 24.44796 | 54.64196 | 65 ft | 4 kts | 78° |
| 2026-05-08 14:32 | 24.44792 | 54.64167 | 67 ft | 4 kts | 84° |
| 2026-05-08 14:32 | 24.44791 | 54.64138 | 69 ft | 4 kts | 99° |
| 2026-05-08 14:33 | 24.44799 | 54.64114 | 70 ft | 4 kts | 150° |
| 2026-05-08 14:33 | 24.44804 | 54.64110 | 67 ft | 0 kts | 165° |
| 2026-05-08 14:36 | 24.44804 | 54.64111 | 67 ft | 1 kts | 165° |
| 2026-05-08 14:36 | 24.44766 | 54.64122 | 69 ft | 11 kts | 165° |
| 2026-05-08 14:36 | 24.44674 | 54.64151 | 70 ft | 15 kts | 159° |
| 2026-05-08 14:37 | 24.44575 | 54.64187 | 68 ft | 15 kts | 155° |
| 2026-05-08 14:37 | 24.44473 | 54.64234 | 76 ft | 16 kts | 157° |
| 2026-05-08 14:37 | 24.44378 | 54.64302 | 74 ft | 17 kts | 128° |
| 2026-05-08 14:37 | 24.44303 | 54.64405 | 71 ft | 18 kts | 128° |
| 2026-05-08 14:38 | 24.44226 | 54.64517 | 74 ft | 19 kts | 127° |
| 2026-05-08 14:38 | 24.44140 | 54.64632 | 70 ft | 20 kts | 130° |
| 2026-05-08 14:38 | 24.44049 | 54.64752 | 69 ft | 16 kts | 128° |
| 2026-05-08 14:38 | 24.43970 | 54.64755 | 76 ft | 14 kts | 215° |
| 2026-05-08 14:39 | 24.43884 | 54.64766 | 70 ft | 13 kts | 132° |
| 2026-05-08 14:39 | 24.43830 | 54.64850 | 66 ft | 14 kts | 128° |
| 2026-05-08 14:39 | 24.43767 | 54.64938 | 65 ft | 15 kts | 128° |
| 2026-05-08 14:39 | 24.43697 | 54.65034 | 68 ft | 17 kts | 128° |
| 2026-05-08 14:40 | 24.43623 | 54.65137 | 65 ft | 18 kts | 128° |
| 2026-05-08 14:40 | 24.43543 | 54.65246 | 70 ft | 19 kts | 128° |
| 2026-05-08 14:40 | 24.43462 | 54.65364 | 70 ft | 20 kts | 126° |
| 2026-05-08 14:40 | 24.43376 | 54.65487 | 73 ft | 21 kts | 128° |
| 2026-05-08 14:41 | 24.43283 | 54.65613 | 74 ft | 22 kts | 128° |
| 2026-05-08 14:41 | 24.43188 | 54.65749 | 75 ft | 23 kts | 128° |
| 2026-05-08 14:41 | 24.43087 | 54.65889 | 74 ft | 24 kts | 128° |
| 2026-05-08 14:41 | 24.42986 | 54.66036 | 75 ft | 25 kts | 129° |
| 2026-05-08 14:42 | 24.42876 | 54.66182 | 74 ft | 25 kts | 130° |
| 2026-05-08 14:42 | 24.42777 | 54.66320 | 65 ft | 20 kts | 124° |
| 2026-05-08 14:42 | 24.42696 | 54.66443 | 66 ft | 21 kts | 130° |
| 2026-05-08 14:42 | 24.42604 | 54.66569 | 72 ft | 22 kts | 127° |
| 2026-05-08 14:43 | 24.42509 | 54.66707 | 71 ft | 23 kts | 128° |
| 2026-05-08 14:43 | 24.42403 | 54.66753 | 76 ft | 17 kts | 207° |
| 2026-05-08 14:43 | 24.42305 | 54.66668 | 71 ft | 18 kts | 218° |
| 2026-05-08 14:43 | 24.42281 | 54.66562 | 72 ft | 16 kts | 304° |
| 2026-05-08 14:44 | 24.42292 | 54.66546 | 73 ft | 0 kts | 308° |
| 2026-05-08 14:44 | 24.42293 | 54.66544 | 73 ft | 2 kts | 308° |
| 2026-05-08 14:44 | 24.42433 | 54.66349 | 73 ft | 70 kts | 308° |
| 2026-05-08 14:45 | 24.42879 | 54.65718 | 70 ft | 135 kts | 307° |
| 2026-05-08 14:45 | 24.43547 | 54.64767 | 237 ft | 170 kts | 306° |
| 2026-05-08 14:45 | 24.44296 | 54.63681 | 671 ft | 185 kts | 307° |
| 2026-05-08 14:45 | 24.45086 | 54.62523 | 1165 ft | 193 kts | 307° |
| 2026-05-08 14:46 | 24.45896 | 54.61322 | 1728 ft | 197 kts | 307° |
| 2026-05-08 14:46 | 24.46724 | 54.60123 | 2062 ft | 204 kts | 309° |
| 2026-05-08 14:46 | 24.47650 | 54.58854 | 2167 ft | 223 kts | 309° |
| 2026-05-08 14:46 | 24.48674 | 54.57457 | 2305 ft | 246 kts | 308° |
| 2026-05-08 14:47 | 24.49768 | 54.55955 | 2757 ft | 255 kts | 308° |
| 2026-05-08 14:47 | 24.50873 | 54.54424 | 3420 ft | 257 kts | 308° |
| 2026-05-08 14:47 | 24.51984 | 54.52870 | 4055 ft | 260 kts | 308° |
| 2026-05-08 14:47 | 24.53108 | 54.51293 | 4643 ft | 265 kts | 309° |
| 2026-05-08 14:48 | 24.54256 | 54.49682 | 5224 ft | 269 kts | 308° |
| 2026-05-08 14:48 | 24.55399 | 54.48072 | 5855 ft | 273 kts | 308° |
| 2026-05-08 14:48 | 24.56569 | 54.46414 | 6445 ft | 277 kts | 308° |
| 2026-05-08 14:48 | 24.57760 | 54.44723 | 7025 ft | 281 kts | 307° |
| 2026-05-08 14:49 | 24.58965 | 54.43013 | 7644 ft | 285 kts | 307° |
| 2026-05-08 14:49 | 24.60188 | 54.41283 | 8270 ft | 288 kts | 307° |
| 2026-05-08 14:49 | 24.61426 | 54.39533 | 8841 ft | 293 kts | 306° |
| 2026-05-08 14:49 | 24.62681 | 54.37764 | 8986 ft | 294 kts | 306° |
| 2026-05-08 14:50 | 24.63937 | 54.35991 | 9016 ft | 294 kts | 306° |
| 2026-05-08 14:50 | 24.65203 | 54.34201 | 9519 ft | 297 kts | 306° |
| 2026-05-08 14:50 | 24.66474 | 54.32403 | 10124 ft | 301 kts | 305° |
| 2026-05-08 14:50 | 24.67802 | 54.30519 | 10280 ft | 322 kts | 305° |
| 2026-05-08 14:51 | 24.69220 | 54.28504 | 10394 ft | 343 kts | 306° |
| 2026-05-08 14:51 | 24.70715 | 54.26387 | 10683 ft | 356 kts | 306° |
| 2026-05-08 14:51 | 24.72249 | 54.24221 | 11176 ft | 361 kts | 306° |
| 2026-05-08 14:51 | 24.73804 | 54.22029 | 11694 ft | 366 kts | 306° |
| 2026-05-08 14:52 | 24.75381 | 54.19808 | 12231 ft | 371 kts | 305° |
| 2026-05-08 14:52 | 24.78594 | 54.15270 | 13280 ft | 381 kts | 305° |
| 2026-05-08 14:52 | 24.80226 | 54.12957 | 13791 ft | 385 kts | 305° |
| 2026-05-08 14:53 | 24.81871 | 54.10617 | 14320 ft | 388 kts | 305° |
| 2026-05-08 14:53 | 24.83521 | 54.08254 | 14890 ft | 389 kts | 303° |
| 2026-05-08 14:53 | 24.84981 | 54.05749 | 15450 ft | 390 kts | 299° |
| 2026-05-08 14:53 | 24.86410 | 54.03203 | 16027 ft | 391 kts | 299° |
| 2026-05-08 14:54 | 24.87356 | 54.01514 | 16399 ft | 393 kts | 300° |
| 2026-05-08 14:54 | 24.89279 | 53.98075 | 17164 ft | 395 kts | 300° |
| 2026-05-08 14:54 | 24.90235 | 53.96370 | 17565 ft | 396 kts | 300° |
| 2026-05-08 14:54 | 24.91684 | 53.93788 | 18116 ft | 398 kts | 300° |
| 2026-05-08 14:55 | 24.93143 | 53.91187 | 18587 ft | 400 kts | 300° |
| 2026-05-08 14:55 | 24.94602 | 53.88582 | 19055 ft | 402 kts | 300° |
| 2026-05-08 14:55 | 24.96072 | 53.85951 | 19538 ft | 405 kts | 300° |
| 2026-05-08 14:55 | 24.97552 | 53.83302 | 20042 ft | 406 kts | 300° |
| 2026-05-08 14:56 | 24.99037 | 53.80648 | 20531 ft | 408 kts | 299° |
| 2026-05-08 14:56 | 25.00529 | 53.77973 | 21008 ft | 411 kts | 299° |
| 2026-05-08 14:56 | 25.02183 | 53.75386 | 21455 ft | 416 kts | 308° |
| 2026-05-08 14:56 | 25.04209 | 53.73085 | 21901 ft | 420 kts | 313° |
| 2026-05-08 14:57 | 25.06317 | 53.70842 | 22343 ft | 422 kts | 313° |
| 2026-05-08 14:57 | 25.08438 | 53.68583 | 22749 ft | 425 kts | 313° |
| 2026-05-08 14:57 | 25.10572 | 53.66306 | 23151 ft | 428 kts | 313° |
| 2026-05-08 14:57 | 25.12715 | 53.64011 | 23515 ft | 431 kts | 313° |
| 2026-05-08 14:58 | 25.14866 | 53.61700 | 23736 ft | 432 kts | 313° |
| 2026-05-08 14:58 | 25.17018 | 53.59389 | 23795 ft | 429 kts | 313° |
| 2026-05-08 14:58 | 25.19142 | 53.57104 | 23801 ft | 426 kts | 313° |
| 2026-05-08 14:58 | 25.21264 | 53.54820 | 23800 ft | 425 kts | 313° |
| 2026-05-08 14:59 | 25.23375 | 53.52545 | 23805 ft | 425 kts | 313° |
| 2026-05-08 14:59 | 25.27577 | 53.48007 | 23802 ft | 425 kts | 313° |
| 2026-05-08 14:59 | 25.29717 | 53.45698 | 23802 ft | 425 kts | 313° |
| 2026-05-08 15:00 | 25.31810 | 53.43447 | 23805 ft | 425 kts | 313° |
| 2026-05-08 15:00 | 25.33927 | 53.41172 | 23804 ft | 425 kts | 313° |
| 2026-05-08 15:00 | 25.36046 | 53.38894 | 23804 ft | 425 kts | 313° |
| 2026-05-08 15:00 | 25.38163 | 53.36613 | 23804 ft | 425 kts | 313° |
| 2026-05-08 15:01 | 25.40278 | 53.34328 | 23807 ft | 425 kts | 313° |
| 2026-05-08 15:01 | 25.42393 | 53.32043 | 23806 ft | 425 kts | 313° |
| 2026-05-08 15:01 | 25.44509 | 53.29757 | 23812 ft | 425 kts | 313° |
| 2026-05-08 15:01 | 25.46620 | 53.27463 | 23811 ft | 425 kts | 310° |
| 2026-05-08 15:02 | 25.48464 | 53.24930 | 23805 ft | 420 kts | 300° |
| 2026-05-08 15:02 | 25.49853 | 53.22105 | 23805 ft | 416 kts | 290° |
| 2026-05-08 15:02 | 25.50761 | 53.19084 | 23803 ft | 412 kts | 280° |
| 2026-05-08 15:02 | 25.51389 | 53.15990 | 23801 ft | 412 kts | 279° |
| 2026-05-08 15:03 | 25.52020 | 53.12891 | 23808 ft | 413 kts | 279° |
| 2026-05-08 15:03 | 25.52655 | 53.09794 | 23807 ft | 413 kts | 279° |
| 2026-05-08 15:03 | 25.53289 | 53.06697 | 23798 ft | 413 kts | 279° |
| 2026-05-08 15:03 | 25.53921 | 53.03596 | 23803 ft | 413 kts | 279° |
| 2026-05-08 15:04 | 25.54546 | 53.00536 | 23806 ft | 413 kts | 279° |
| 2026-05-08 15:04 | 25.55187 | 52.97397 | 23807 ft | 413 kts | 279° |
| 2026-05-08 15:04 | 25.55811 | 52.94336 | 23809 ft | 413 kts | 279° |
| 2026-05-08 15:04 | 25.56558 | 52.91262 | 23808 ft | 415 kts | 287° |
| 2026-05-08 15:05 | 25.57760 | 52.88341 | 23814 ft | 419 kts | 295° |
| 2026-05-08 15:05 | 25.59151 | 52.85506 | 23814 ft | 419 kts | 295° |
| 2026-05-08 15:05 | 25.60558 | 52.82638 | 23813 ft | 419 kts | 295° |
| 2026-05-08 15:05 | 25.61930 | 52.79837 | 23811 ft | 419 kts | 295° |
| 2026-05-08 15:06 | 25.63315 | 52.77000 | 23811 ft | 419 kts | 295° |
| 2026-05-08 15:06 | 25.64701 | 52.74151 | 23817 ft | 419 kts | 295° |
| 2026-05-08 15:06 | 25.66082 | 52.71311 | 23817 ft | 419 kts | 295° |
| 2026-05-08 15:06 | 25.67461 | 52.68473 | 23818 ft | 419 kts | 295° |
| 2026-05-08 15:07 | 25.68845 | 52.65623 | 23820 ft | 419 kts | 295° |
| 2026-05-08 15:07 | 25.70225 | 52.62779 | 23818 ft | 419 kts | 295° |
| 2026-05-08 15:07 | 25.71605 | 52.59938 | 23818 ft | 419 kts | 295° |
| 2026-05-08 15:07 | 25.72988 | 52.57085 | 23820 ft | 419 kts | 295° |
| 2026-05-08 15:08 | 25.74362 | 52.54247 | 23819 ft | 419 kts | 295° |
| 2026-05-08 15:08 | 25.75274 | 52.52365 | 23824 ft | 419 kts | 295° |
| 2026-05-08 15:08 | 25.77113 | 52.48554 | 23820 ft | 418 kts | 294° |
| 2026-05-08 15:08 | 25.78455 | 52.45699 | 23821 ft | 418 kts | 294° |
| 2026-05-08 15:09 | 25.79784 | 52.42829 | 23822 ft | 418 kts | 293° |
| 2026-05-08 15:09 | 25.81109 | 52.39959 | 23822 ft | 418 kts | 293° |
| 2026-05-08 15:09 | 25.82430 | 52.37093 | 23821 ft | 418 kts | 293° |
| 2026-05-08 15:09 | 25.83755 | 52.34218 | 23820 ft | 418 kts | 293° |
| 2026-05-08 15:10 | 25.85077 | 52.31354 | 23819 ft | 418 kts | 293° |
| 2026-05-08 15:10 | 25.86423 | 52.28493 | 23817 ft | 419 kts | 296° |
| 2026-05-08 15:10 | 25.88097 | 52.25833 | 23828 ft | 423 kts | 307° |
| 2026-05-08 15:10 | 25.90087 | 52.23410 | 23825 ft | 425 kts | 309° |
| 2026-05-08 15:11 | 25.92092 | 52.21003 | 23822 ft | 425 kts | 309° |
| 2026-05-08 15:11 | 25.94099 | 52.18591 | 23826 ft | 425 kts | 309° |
| 2026-05-08 15:11 | 25.96101 | 52.16175 | 23825 ft | 425 kts | 309° |
| 2026-05-08 15:11 | 25.98102 | 52.13755 | 23825 ft | 425 kts | 309° |
| 2026-05-08 15:12 | 26.00101 | 52.11336 | 23825 ft | 425 kts | 309° |
| 2026-05-08 15:12 | 26.02101 | 52.08911 | 23831 ft | 425 kts | 308° |
| 2026-05-08 15:12 | 26.04099 | 52.06486 | 23830 ft | 425 kts | 308° |
| 2026-05-08 15:12 | 26.06098 | 52.04066 | 23839 ft | 425 kts | 308° |
| 2026-05-08 15:13 | 26.08095 | 52.01653 | 23838 ft | 424 kts | 308° |
| 2026-05-08 15:13 | 26.10089 | 51.99240 | 23843 ft | 424 kts | 308° |
| 2026-05-08 15:13 | 26.12084 | 51.96825 | 23842 ft | 423 kts | 308° |
| 2026-05-08 15:13 | 26.14074 | 51.94413 | 23840 ft | 423 kts | 308° |
| 2026-05-08 15:14 | 26.16062 | 51.92000 | 23838 ft | 423 kts | 308° |
| 2026-05-08 15:14 | 26.18022 | 51.89619 | 23839 ft | 423 kts | 308° |
| 2026-05-08 15:14 | 26.20008 | 51.87205 | 23838 ft | 423 kts | 308° |
| 2026-05-08 15:14 | 26.22020 | 51.84757 | 23838 ft | 423 kts | 308° |
| 2026-05-08 15:15 | 26.23991 | 51.82332 | 23848 ft | 421 kts | 305° |
| 2026-05-08 15:15 | 26.25672 | 51.79691 | 23860 ft | 415 kts | 295° |
| 2026-05-08 15:15 | 26.26821 | 51.76781 | 23764 ft | 408 kts | 282° |
| 2026-05-08 15:15 | 26.27255 | 51.73703 | 23159 ft | 400 kts | 266° |
| 2026-05-08 15:16 | 26.27049 | 51.70678 | 22470 ft | 394 kts | 261° |
| 2026-05-08 15:16 | 26.26780 | 51.67671 | 21315 ft | 388 kts | 261° |
| 2026-05-08 15:16 | 26.26509 | 51.64695 | 20145 ft | 384 kts | 261° |
| 2026-05-08 15:16 | 26.26241 | 51.61747 | 19032 ft | 380 kts | 261° |
| 2026-05-08 15:17 | 26.25977 | 51.58831 | 17902 ft | 376 kts | 261° |
| 2026-05-08 15:17 | 26.25719 | 51.55946 | 16684 ft | 373 kts | 261° |
| 2026-05-08 15:17 | 26.25464 | 51.53096 | 15538 ft | 367 kts | 261° |
| 2026-05-08 15:17 | 26.25212 | 51.50273 | 14404 ft | 363 kts | 261° |
| 2026-05-08 15:18 | 26.24968 | 51.47508 | 13656 ft | 353 kts | 263° |
| 2026-05-08 15:18 | 26.24731 | 51.44817 | 13282 ft | 346 kts | 262° |
| 2026-05-08 15:18 | 26.24498 | 51.42188 | 12990 ft | 337 kts | 262° |
| 2026-05-08 15:18 | 26.24269 | 51.39603 | 12554 ft | 334 kts | 263° |
| 2026-05-08 15:19 | 26.24038 | 51.37039 | 12120 ft | 331 kts | 263° |
| 2026-05-08 15:19 | 26.23809 | 51.34503 | 11698 ft | 328 kts | 263° |
| 2026-05-08 15:19 | 26.23581 | 51.31985 | 11279 ft | 325 kts | 264° |
| 2026-05-08 15:19 | 26.23353 | 51.29490 | 10864 ft | 323 kts | 264° |
| 2026-05-08 15:20 | 26.23127 | 51.27016 | 10448 ft | 320 kts | 264° |
| 2026-05-08 15:20 | 26.22903 | 51.24585 | 10258 ft | 309 kts | 264° |
| 2026-05-08 15:20 | 26.22691 | 51.22283 | 9868 ft | 291 kts | 264° |
| 2026-05-08 15:20 | 26.22487 | 51.20068 | 9510 ft | 284 kts | 264° |
| 2026-05-08 15:21 | 26.22288 | 51.17878 | 9387 ft | 284 kts | 265° |
| 2026-05-08 15:21 | 26.22088 | 51.15677 | 9170 ft | 288 kts | 264° |
| 2026-05-08 15:21 | 26.21887 | 51.13458 | 8719 ft | 290 kts | 266° |
| 2026-05-08 15:21 | 26.21686 | 51.11237 | 8394 ft | 286 kts | 266° |
| 2026-05-08 15:22 | 26.21484 | 51.09024 | 7968 ft | 288 kts | 266° |
| 2026-05-08 15:22 | 26.21283 | 51.06832 | 7487 ft | 281 kts | 266° |
| 2026-05-08 15:22 | 26.21081 | 51.04679 | 6843 ft | 277 kts | 267° |
| 2026-05-08 15:22 | 26.20880 | 51.02540 | 6362 ft | 279 kts | 269° |
| 2026-05-08 15:23 | 26.20681 | 51.00396 | 5883 ft | 281 kts | 266° |
| 2026-05-08 15:23 | 26.20480 | 50.98237 | 5583 ft | 277 kts | 267° |
| 2026-05-08 15:23 | 26.20286 | 50.96150 | 5138 ft | 272 kts | 267° |
| 2026-05-08 15:23 | 26.20090 | 50.94071 | 4530 ft | 265 kts | 268° |
| 2026-05-08 15:24 | 26.19902 | 50.92035 | 4055 ft | 267 kts | 269° |
| 2026-05-08 15:24 | 26.19713 | 50.89977 | 3756 ft | 264 kts | 268° |
| 2026-05-08 15:24 | 26.19524 | 50.87953 | 3450 ft | 261 kts | 269° |
| 2026-05-08 15:24 | 26.19338 | 50.85976 | 3282 ft | 253 kts | 270° |
| 2026-05-08 15:25 | 26.19155 | 50.84066 | 3163 ft | 243 kts | 270° |
| 2026-05-08 15:25 | 26.18979 | 50.82242 | 3048 ft | 231 kts | 270° |
| 2026-05-08 15:25 | 26.18813 | 50.80525 | 2966 ft | 215 kts | 271° |
| 2026-05-08 15:25 | 26.18690 | 50.78915 | 2860 ft | 201 kts | 279° |
| 2026-05-08 15:26 | 26.18976 | 50.77449 | 2587 ft | 192 kts | 300° |
| 2026-05-08 15:26 | 26.19658 | 50.76208 | 2302 ft | 184 kts | 306° |
| 2026-05-08 15:26 | 26.20344 | 50.75023 | 2057 ft | 179 kts | 306° |
| 2026-05-08 15:26 | 26.20979 | 50.73923 | 1859 ft | 158 kts | 306° |
| 2026-05-08 15:27 | 26.21537 | 50.72954 | 1657 ft | 142 kts | 309° |
| 2026-05-08 15:27 | 26.22055 | 50.72059 | 1474 ft | 135 kts | 310° |
| 2026-05-08 15:27 | 26.22557 | 50.71193 | 1296 ft | 131 kts | 310° |
| 2026-05-08 15:27 | 26.23049 | 50.70345 | 1134 ft | 129 kts | 309° |
| 2026-05-08 15:28 | 26.23536 | 50.69503 | 972 ft | 129 kts | 309° |
| 2026-05-08 15:28 | 26.24019 | 50.68669 | 825 ft | 130 kts | 307° |
| 2026-05-08 15:28 | 26.24507 | 50.67825 | 669 ft | 128 kts | 305° |
| 2026-05-08 15:28 | 26.25002 | 50.66970 | 459 ft | 137 kts | 302° |
| 2026-05-08 15:29 | 26.25485 | 50.66108 | 269 ft | 129 kts | 301° |
| 2026-05-08 15:29 | 26.25984 | 50.65252 | 140 ft | 131 kts | 303° |
| 2026-05-08 15:29 | 26.26474 | 50.64410 | 48 ft | 128 kts | 304° |
| 2026-05-08 15:29 | 26.26944 | 50.63631 | 18 ft | 107 kts | 304° |
| 2026-05-08 15:30 | 26.27253 | 50.63091 | 19 ft | 58 kts | 302° |
| 2026-05-08 15:30 | 26.27390 | 50.62848 | 20 ft | 29 kts | 301° |
| 2026-05-08 15:30 | 26.27464 | 50.62665 | 20 ft | 10 kts | 247° |
| 2026-05-08 15:30 | 26.27408 | 50.62619 | 20 ft | 9 kts | 208° |
| 2026-05-08 15:31 | 26.27353 | 50.62585 | 22 ft | 5 kts | 208° |
| 2026-05-08 15:31 | 26.27327 | 50.62579 | 22 ft | 1 kts | 145° |
| 2026-05-08 15:31 | 26.27316 | 50.62608 | 20 ft | 7 kts | 114° |
| 2026-05-08 15:31 | 26.27291 | 50.62665 | 20 ft | 9 kts | 117° |
| 2026-05-08 15:32 | 26.27258 | 50.62729 | 20 ft | 10 kts | 127° |
| 2026-05-08 15:32 | 26.27212 | 50.62799 | 20 ft | 12 kts | 122° |
| 2026-05-08 15:32 | 26.27162 | 50.62886 | 21 ft | 14 kts | 125° |
| 2026-05-08 15:32 | 26.27112 | 50.62906 | 20 ft | 6 kts | 194° |
| 2026-05-08 15:33 | 26.27075 | 50.62885 | 20 ft | 7 kts | 209° |
| 2026-05-08 15:33 | 26.27052 | 50.62871 | 19 ft | 0 kts | 210° |
| 2026-05-08 15:33 | 26.27037 | 50.62860 | 19 ft | 6 kts | 213° |
| 2026-05-08 15:33 | 26.26991 | 50.62827 | 21 ft | 9 kts | 212° |
| 2026-05-08 15:34 | 26.26976 | 50.62817 | 19 ft | 0 kts | 212° |